sensor_id;sensor_type;location;lat;lon;timestamp;P1;durP1;ratioP1;P2;durP2;ratioP2
9424;SDS011;17139;52.140;11.636;2023-03-13T00:00:00;10.03;;;2.63;;
9424;SDS011;17139;52.140;11.636;2023-03-13T00:02:30;6.23;;;2.63;;
9424;SDS011;17139;52.140;11.636;2023-03-13T00:04:57;6.17;;;2.43;;
9424;SDS011;17139;52.140;11.636;2023-03-13T00:07:24;3.53;;;2.23;;
9424;SDS011;17139;52.140;11.636;2023-03-13T00:09:51;8.30;;;3.40;;
9424;SDS011;17139;52.140;11.636;2023-03-13T00:12:18;4.50;;;2.43;;
9424;SDS011;17139;52.140;11.636;2023-03-13T00:14:46;3.17;;;2.53;;
9424;SDS011;17139;52.140;11.636;2023-03-13T00:17:13;9.47;;;2.63;;
9424;SDS011;17139;52.140;11.636;2023-03-13T00:19:40;2.70;;;2.23;;
9424;SDS011;17139;52.140;11.636;2023-03-13T00:22:07;2.87;;;2.20;;
9424;SDS011;17139;52.140;11.636;2023-03-13T00:24:34;6.93;;;2.63;;
9424;SDS011;17139;52.140;11.636;2023-03-13T00:27:02;2.87;;;1.83;;
9424;SDS011;17139;52.140;11.636;2023-03-13T00:29:29;2.90;;;2.57;;
9424;SDS011;17139;52.140;11.636;2023-03-13T00:31:59;12.60;;;3.37;;
9424;SDS011;17139;52.140;11.636;2023-03-13T00:34:26;9.07;;;2.43;;
9424;SDS011;17139;52.140;11.636;2023-03-13T00:36:53;6.23;;;2.83;;
9424;SDS011;17139;52.140;11.636;2023-03-13T00:39:21;4.30;;;2.83;;
9424;SDS011;17139;52.140;11.636;2023-03-13T00:41:48;6.23;;;2.23;;
9424;SDS011;17139;52.140;11.636;2023-03-13T00:44:15;6.50;;;2.73;;
9424;SDS011;17139;52.140;11.636;2023-03-13T00:46:42;6.53;;;2.90;;
9424;SDS011;17139;52.140;11.636;2023-03-13T00:49:10;7.33;;;2.87;;
9424;SDS011;17139;52.140;11.636;2023-03-13T00:51:37;10.10;;;3.27;;
9424;SDS011;17139;52.140;11.636;2023-03-13T00:54:04;5.90;;;2.70;;
9424;SDS011;17139;52.140;11.636;2023-03-13T00:56:32;7.17;;;2.47;;
9424;SDS011;17139;52.140;11.636;2023-03-13T00:58:59;9.07;;;2.60;;
9424;SDS011;17139;52.140;11.636;2023-03-13T01:01:27;5.50;;;2.60;;
9424;SDS011;17139;52.140;11.636;2023-03-13T01:03:56;2.73;;;2.13;;
9424;SDS011;17139;52.140;11.636;2023-03-13T01:06:26;9.77;;;2.50;;
9424;SDS011;17139;52.140;11.636;2023-03-13T01:08:54;9.77;;;2.90;;
9424;SDS011;17139;52.140;11.636;2023-03-13T01:11:22;4.83;;;2.13;;
9424;SDS011;17139;52.140;11.636;2023-03-13T01:13:52;8.63;;;2.57;;
9424;SDS011;17139;52.140;11.636;2023-03-13T01:16:20;5.40;;;2.95;;
9424;SDS011;17139;52.140;11.636;2023-03-13T01:18:48;9.90;;;3.53;;
9424;SDS011;17139;52.140;11.636;2023-03-13T01:21:17;7.33;;;2.47;;
9424;SDS011;17139;52.140;11.636;2023-03-13T01:23:48;8.63;;;2.30;;
9424;SDS011;17139;52.140;11.636;2023-03-13T01:26:16;5.87;;;2.57;;
9424;SDS011;17139;52.140;11.636;2023-03-13T01:28:44;2.77;;;1.87;;
9424;SDS011;17139;52.140;11.636;2023-03-13T01:31:12;5.03;;;2.30;;
9424;SDS011;17139;52.140;11.636;2023-03-13T01:33:41;7.40;;;2.50;;
9424;SDS011;17139;52.140;11.636;2023-03-13T01:36:08;4.43;;;2.20;;
9424;SDS011;17139;52.140;11.636;2023-03-13T01:38:35;5.00;;;3.10;;
9424;SDS011;17139;52.140;11.636;2023-03-13T01:41:04;6.63;;;2.60;;
9424;SDS011;17139;52.140;11.636;2023-03-13T01:43:35;9.23;;;2.63;;
9424;SDS011;17139;52.140;11.636;2023-03-13T01:46:04;4.13;;;2.00;;
9424;SDS011;17139;52.140;11.636;2023-03-13T01:48:40;10.40;;;3.72;;
9424;SDS011;17139;52.140;11.636;2023-03-13T01:51:10;4.47;;;2.20;;
9424;SDS011;17139;52.140;11.636;2023-03-13T01:53:41;9.80;;;2.47;;
9424;SDS011;17139;52.140;11.636;2023-03-13T01:56:14;7.00;;;2.70;;
9424;SDS011;17139;52.140;11.636;2023-03-13T01:58:46;2.73;;;2.40;;
9424;SDS011;17139;52.140;11.636;2023-03-13T02:01:16;3.23;;;2.43;;
9424;SDS011;17139;52.140;11.636;2023-03-13T02:03:44;2.63;;;1.97;;
9424;SDS011;17139;52.140;11.636;2023-03-13T02:06:14;3.70;;;2.40;;
9424;SDS011;17139;52.140;11.636;2023-03-13T02:08:42;10.03;;;2.27;;
9424;SDS011;17139;52.140;11.636;2023-03-13T02:11:18;6.47;;;2.60;;
9424;SDS011;17139;52.140;11.636;2023-03-13T02:13:50;4.57;;;2.53;;
9424;SDS011;17139;52.140;11.636;2023-03-13T02:16:19;4.83;;;2.00;;
9424;SDS011;17139;52.140;11.636;2023-03-13T02:18:47;7.20;;;2.80;;
9424;SDS011;17139;52.140;11.636;2023-03-13T02:21:16;4.80;;;2.30;;
9424;SDS011;17139;52.140;11.636;2023-03-13T02:23:50;5.83;;;2.50;;
9424;SDS011;17139;52.140;11.636;2023-03-13T02:26:22;5.30;;;1.87;;
9424;SDS011;17139;52.140;11.636;2023-03-13T02:28:50;5.43;;;2.40;;
9424;SDS011;17139;52.140;11.636;2023-03-13T02:31:17;6.30;;;2.72;;
9424;SDS011;17139;52.140;11.636;2023-03-13T02:33:44;6.78;;;3.28;;
9424;SDS011;17139;52.140;11.636;2023-03-13T02:36:11;3.17;;;2.60;;
9424;SDS011;17139;52.140;11.636;2023-03-13T02:38:43;6.73;;;2.27;;
9424;SDS011;17139;52.140;11.636;2023-03-13T02:41:14;4.83;;;2.60;;
9424;SDS011;17139;52.140;11.636;2023-03-13T02:43:43;5.73;;;2.77;;
9424;SDS011;17139;52.140;11.636;2023-03-13T02:46:11;5.67;;;2.47;;
9424;SDS011;17139;52.140;11.636;2023-03-13T02:48:40;11.57;;;2.53;;
9424;SDS011;17139;52.140;11.636;2023-03-13T02:51:10;7.07;;;2.60;;
9424;SDS011;17139;52.140;11.636;2023-03-13T02:53:43;6.27;;;2.40;;
9424;SDS011;17139;52.140;11.636;2023-03-13T02:56:11;6.47;;;2.60;;
9424;SDS011;17139;52.140;11.636;2023-03-13T02:58:40;9.03;;;2.77;;
9424;SDS011;17139;52.140;11.636;2023-03-13T03:01:09;4.77;;;1.83;;
9424;SDS011;17139;52.140;11.636;2023-03-13T03:03:36;5.70;;;2.28;;
9424;SDS011;17139;52.140;11.636;2023-03-13T03:06:04;7.27;;;2.67;;
9424;SDS011;17139;52.140;11.636;2023-03-13T03:08:31;7.33;;;3.17;;
9424;SDS011;17139;52.140;11.636;2023-03-13T03:10:59;12.70;;;2.20;;
9424;SDS011;17139;52.140;11.636;2023-03-13T03:13:26;7.00;;;3.30;;
9424;SDS011;17139;52.140;11.636;2023-03-13T03:15:53;7.77;;;2.73;;
9424;SDS011;17139;52.140;11.636;2023-03-13T03:18:21;6.07;;;2.10;;
9424;SDS011;17139;52.140;11.636;2023-03-13T03:20:48;5.50;;;2.40;;
9424;SDS011;17139;52.140;11.636;2023-03-13T03:23:16;15.90;;;2.70;;
9424;SDS011;17139;52.140;11.636;2023-03-13T03:25:43;6.17;;;1.93;;
9424;SDS011;17139;52.140;11.636;2023-03-13T03:28:10;2.17;;;1.97;;
9424;SDS011;17139;52.140;11.636;2023-03-13T03:30:37;9.37;;;1.80;;
9424;SDS011;17139;52.140;11.636;2023-03-13T03:33:04;5.47;;;2.27;;
9424;SDS011;17139;52.140;11.636;2023-03-13T03:35:32;1.70;;;1.60;;
9424;SDS011;17139;52.140;11.636;2023-03-13T03:38:02;4.40;;;1.93;;
9424;SDS011;17139;52.140;11.636;2023-03-13T03:40:29;6.97;;;2.23;;
9424;SDS011;17139;52.140;11.636;2023-03-13T03:42:56;3.23;;;2.00;;
9424;SDS011;17139;52.140;11.636;2023-03-13T03:45:24;6.30;;;2.87;;
9424;SDS011;17139;52.140;11.636;2023-03-13T03:47:51;7.67;;;2.40;;
9424;SDS011;17139;52.140;11.636;2023-03-13T03:50:18;8.18;;;2.55;;
9424;SDS011;17139;52.140;11.636;2023-03-13T03:52:46;5.00;;;2.13;;
9424;SDS011;17139;52.140;11.636;2023-03-13T03:55:14;5.87;;;2.97;;
9424;SDS011;17139;52.140;11.636;2023-03-13T03:57:41;7.00;;;2.27;;
9424;SDS011;17139;52.140;11.636;2023-03-13T04:00:08;5.67;;;2.67;;
9424;SDS011;17139;52.140;11.636;2023-03-13T04:02:39;6.73;;;2.43;;
9424;SDS011;17139;52.140;11.636;2023-03-13T04:05:07;8.27;;;3.23;;
9424;SDS011;17139;52.140;11.636;2023-03-13T04:07:34;6.07;;;2.67;;
9424;SDS011;17139;52.140;11.636;2023-03-13T04:10:02;9.60;;;2.20;;
9424;SDS011;17139;52.140;11.636;2023-03-13T04:12:30;9.80;;;2.60;;
9424;SDS011;17139;52.140;11.636;2023-03-13T04:14:57;5.80;;;1.87;;
9424;SDS011;17139;52.140;11.636;2023-03-13T04:17:24;10.53;;;2.00;;
9424;SDS011;17139;52.140;11.636;2023-03-13T04:19:51;2.00;;;1.83;;
9424;SDS011;17139;52.140;11.636;2023-03-13T04:22:18;10.65;;;2.85;;
9424;SDS011;17139;52.140;11.636;2023-03-13T04:24:45;7.32;;;3.20;;
9424;SDS011;17139;52.140;11.636;2023-03-13T04:27:14;4.07;;;2.00;;
9424;SDS011;17139;52.140;11.636;2023-03-13T04:29:41;6.13;;;2.07;;
9424;SDS011;17139;52.140;11.636;2023-03-13T04:32:08;7.47;;;2.73;;
9424;SDS011;17139;52.140;11.636;2023-03-13T04:34:35;3.77;;;1.67;;
9424;SDS011;17139;52.140;11.636;2023-03-13T04:37:02;3.33;;;2.80;;
9424;SDS011;17139;52.140;11.636;2023-03-13T04:39:30;7.73;;;1.80;;
9424;SDS011;17139;52.140;11.636;2023-03-13T04:41:57;3.17;;;1.80;;
9424;SDS011;17139;52.140;11.636;2023-03-13T04:44:26;8.23;;;2.27;;
9424;SDS011;17139;52.140;11.636;2023-03-13T04:46:53;8.97;;;2.00;;
9424;SDS011;17139;52.140;11.636;2023-03-13T04:49:20;6.83;;;2.43;;
9424;SDS011;17139;52.140;11.636;2023-03-13T04:51:47;5.23;;;3.00;;
9424;SDS011;17139;52.140;11.636;2023-03-13T04:54:14;6.53;;;2.60;;
9424;SDS011;17139;52.140;11.636;2023-03-13T04:56:41;9.40;;;2.78;;
9424;SDS011;17139;52.140;11.636;2023-03-13T04:59:08;7.40;;;2.77;;
9424;SDS011;17139;52.140;11.636;2023-03-13T05:01:37;2.90;;;2.23;;
9424;SDS011;17139;52.140;11.636;2023-03-13T05:04:05;4.70;;;2.20;;
9424;SDS011;17139;52.140;11.636;2023-03-13T05:06:32;6.53;;;2.63;;
9424;SDS011;17139;52.140;11.636;2023-03-13T05:08:59;9.20;;;2.40;;
9424;SDS011;17139;52.140;11.636;2023-03-13T05:11:26;3.07;;;2.10;;
9424;SDS011;17139;52.140;11.636;2023-03-13T05:13:53;7.60;;;2.40;;
9424;SDS011;17139;52.140;11.636;2023-03-13T05:16:20;4.47;;;2.30;;
9424;SDS011;17139;52.140;11.636;2023-03-13T05:18:49;8.17;;;2.50;;
9424;SDS011;17139;52.140;11.636;2023-03-13T05:21:16;6.13;;;2.50;;
9424;SDS011;17139;52.140;11.636;2023-03-13T05:23:43;3.27;;;1.87;;
9424;SDS011;17139;52.140;11.636;2023-03-13T05:26:10;9.43;;;3.00;;
9424;SDS011;17139;52.140;11.636;2023-03-13T05:28:37;9.47;;;3.43;;
9424;SDS011;17139;52.140;11.636;2023-03-13T05:31:04;2.70;;;2.50;;
9424;SDS011;17139;52.140;11.636;2023-03-13T05:33:31;4.00;;;2.10;;
9424;SDS011;17139;52.140;11.636;2023-03-13T05:35:59;3.20;;;2.20;;
9424;SDS011;17139;52.140;11.636;2023-03-13T05:38:26;5.83;;;2.13;;
9424;SDS011;17139;52.140;11.636;2023-03-13T05:40:53;4.57;;;2.23;;
9424;SDS011;17139;52.140;11.636;2023-03-13T05:43:20;8.63;;;2.07;;
9424;SDS011;17139;52.140;11.636;2023-03-13T05:45:47;5.10;;;1.93;;
9424;SDS011;17139;52.140;11.636;2023-03-13T05:48:14;4.83;;;1.97;;
9424;SDS011;17139;52.140;11.636;2023-03-13T05:50:42;3.07;;;2.27;;
9424;SDS011;17139;52.140;11.636;2023-03-13T05:53:10;8.90;;;2.17;;
9424;SDS011;17139;52.140;11.636;2023-03-13T05:55:37;6.87;;;2.53;;
9424;SDS011;17139;52.140;11.636;2023-03-13T05:58:04;4.43;;;1.87;;
9424;SDS011;17139;52.140;11.636;2023-03-13T06:00:31;7.33;;;1.67;;
9424;SDS011;17139;52.140;11.636;2023-03-13T06:02:59;9.27;;;3.40;;
9424;SDS011;17139;52.140;11.636;2023-03-13T06:05:26;7.32;;;2.92;;
9424;SDS011;17139;52.140;11.636;2023-03-13T06:07:53;8.15;;;3.00;;
9424;SDS011;17139;52.140;11.636;2023-03-13T06:10:21;9.60;;;2.57;;
9424;SDS011;17139;52.140;11.636;2023-03-13T06:12:51;13.20;;;2.57;;
9424;SDS011;17139;52.140;11.636;2023-03-13T06:15:19;6.80;;;2.10;;
9424;SDS011;17139;52.140;11.636;2023-03-13T06:17:46;9.80;;;2.20;;
9424;SDS011;17139;52.140;11.636;2023-03-13T06:20:13;3.47;;;1.77;;
9424;SDS011;17139;52.140;11.636;2023-03-13T06:22:40;8.23;;;3.20;;
9424;SDS011;17139;52.140;11.636;2023-03-13T06:25:08;8.80;;;2.92;;
9424;SDS011;17139;52.140;11.636;2023-03-13T06:27:36;7.57;;;2.40;;
9424;SDS011;17139;52.140;11.636;2023-03-13T06:30:03;8.32;;;3.03;;
9424;SDS011;17139;52.140;11.636;2023-03-13T06:32:31;2.80;;;2.23;;
9424;SDS011;17139;52.140;11.636;2023-03-13T06:34:58;4.00;;;2.17;;
9424;SDS011;17139;52.140;11.636;2023-03-13T06:37:25;4.43;;;2.07;;
9424;SDS011;17139;52.140;11.636;2023-03-13T06:39:52;3.60;;;1.77;;
9424;SDS011;17139;52.140;11.636;2023-03-13T06:42:19;6.17;;;2.40;;
9424;SDS011;17139;52.140;11.636;2023-03-13T06:44:47;3.37;;;1.77;;
9424;SDS011;17139;52.140;11.636;2023-03-13T06:47:14;7.93;;;2.60;;
9424;SDS011;17139;52.140;11.636;2023-03-13T06:49:41;3.97;;;2.37;;
9424;SDS011;17139;52.140;11.636;2023-03-13T06:52:10;5.57;;;2.90;;
9424;SDS011;17139;52.140;11.636;2023-03-13T06:54:37;7.13;;;2.00;;
9424;SDS011;17139;52.140;11.636;2023-03-13T06:57:04;9.53;;;2.73;;
9424;SDS011;17139;52.140;11.636;2023-03-13T06:59:32;5.53;;;3.08;;
9424;SDS011;17139;52.140;11.636;2023-03-13T07:02:00;11.20;;;1.87;;
9424;SDS011;17139;52.140;11.636;2023-03-13T07:04:27;5.17;;;2.37;;
9424;SDS011;17139;52.140;11.636;2023-03-13T07:06:54;3.57;;;2.07;;
9424;SDS011;17139;52.140;11.636;2023-03-13T07:09:21;5.70;;;2.30;;
9424;SDS011;17139;52.140;11.636;2023-03-13T07:11:48;2.63;;;1.60;;
9424;SDS011;17139;52.140;11.636;2023-03-13T07:14:15;4.13;;;2.13;;
9424;SDS011;17139;52.140;11.636;2023-03-13T07:16:42;4.37;;;1.90;;
9424;SDS011;17139;52.140;11.636;2023-03-13T07:19:11;8.50;;;2.50;;
9424;SDS011;17139;52.140;11.636;2023-03-13T07:21:38;7.23;;;2.57;;
9424;SDS011;17139;52.140;11.636;2023-03-13T07:24:05;7.43;;;2.53;;
9424;SDS011;17139;52.140;11.636;2023-03-13T07:26:32;3.03;;;1.63;;
9424;SDS011;17139;52.140;11.636;2023-03-13T07:29:00;6.23;;;2.37;;
9424;SDS011;17139;52.140;11.636;2023-03-13T07:31:28;2.37;;;2.07;;
9424;SDS011;17139;52.140;11.636;2023-03-13T07:33:57;4.90;;;2.07;;
9424;SDS011;17139;52.140;11.636;2023-03-13T07:36:26;3.80;;;2.07;;
9424;SDS011;17139;52.140;11.636;2023-03-13T07:38:53;3.93;;;1.60;;
9424;SDS011;17139;52.140;11.636;2023-03-13T07:41:20;4.00;;;1.80;;
9424;SDS011;17139;52.140;11.636;2023-03-13T07:43:48;2.80;;;1.80;;
9424;SDS011;17139;52.140;11.636;2023-03-13T07:46:15;7.00;;;2.40;;
9424;SDS011;17139;52.140;11.636;2023-03-13T07:48:44;4.70;;;1.87;;
9424;SDS011;17139;52.140;11.636;2023-03-13T07:51:12;2.40;;;1.80;;
9424;SDS011;17139;52.140;11.636;2023-03-13T07:53:42;4.27;;;1.57;;
9424;SDS011;17139;52.140;11.636;2023-03-13T07:56:10;4.27;;;1.73;;
9424;SDS011;17139;52.140;11.636;2023-03-13T07:58:38;5.15;;;2.25;;
9424;SDS011;17139;52.140;11.636;2023-03-13T08:01:07;2.20;;;1.73;;
9424;SDS011;17139;52.140;11.636;2023-03-13T08:03:35;4.77;;;1.37;;
9424;SDS011;17139;52.140;11.636;2023-03-13T08:06:03;3.03;;;1.60;;
9424;SDS011;17139;52.140;11.636;2023-03-13T08:08:32;6.53;;;2.30;;
9424;SDS011;17139;52.140;11.636;2023-03-13T08:11:01;3.10;;;1.53;;
9424;SDS011;17139;52.140;11.636;2023-03-13T08:13:29;1.60;;;1.30;;
9424;SDS011;17139;52.140;11.636;2023-03-13T08:16:03;1.57;;;1.27;;
9424;SDS011;17139;52.140;11.636;2023-03-13T08:18:31;1.60;;;1.20;;
9424;SDS011;17139;52.140;11.636;2023-03-13T08:21:00;1.60;;;1.23;;
9424;SDS011;17139;52.140;11.636;2023-03-13T08:23:28;3.57;;;1.67;;
9424;SDS011;17139;52.140;11.636;2023-03-13T08:26:01;6.07;;;1.37;;
9424;SDS011;17139;52.140;11.636;2023-03-13T08:28:29;3.13;;;1.40;;
9424;SDS011;17139;52.140;11.636;2023-03-13T08:30:56;3.30;;;1.93;;
9424;SDS011;17139;52.140;11.636;2023-03-13T08:33:23;1.60;;;1.43;;
9424;SDS011;17139;52.140;11.636;2023-03-13T08:35:50;2.03;;;1.70;;
9424;SDS011;17139;52.140;11.636;2023-03-13T08:38:17;2.40;;;1.80;;
9424;SDS011;17139;52.140;11.636;2023-03-13T08:40:44;4.53;;;1.60;;
9424;SDS011;17139;52.140;11.636;2023-03-13T08:43:13;6.23;;;1.67;;
9424;SDS011;17139;52.140;11.636;2023-03-13T08:45:40;2.93;;;2.13;;
9424;SDS011;17139;52.140;11.636;2023-03-13T08:48:07;2.67;;;1.70;;
9424;SDS011;17139;52.140;11.636;2023-03-13T08:50:34;3.93;;;1.70;;
9424;SDS011;17139;52.140;11.636;2023-03-13T08:53:01;5.50;;;1.20;;
9424;SDS011;17139;52.140;11.636;2023-03-13T08:55:28;1.70;;;1.60;;
9424;SDS011;17139;52.140;11.636;2023-03-13T08:57:55;1.95;;;1.30;;
9424;SDS011;17139;52.140;11.636;2023-03-13T09:00:23;2.00;;;1.33;;
9424;SDS011;17139;52.140;11.636;2023-03-13T09:02:51;5.30;;;1.50;;
9424;SDS011;17139;52.140;11.636;2023-03-13T09:05:18;4.17;;;1.30;;
9424;SDS011;17139;52.140;11.636;2023-03-13T09:07:45;2.10;;;1.30;;
9424;SDS011;17139;52.140;11.636;2023-03-13T09:10:12;0.93;;;0.80;;
9424;SDS011;17139;52.140;11.636;2023-03-13T09:12:39;1.23;;;1.17;;
9424;SDS011;17139;52.140;11.636;2023-03-13T09:15:07;0.67;;;0.67;;
9424;SDS011;17139;52.140;11.636;2023-03-13T09:17:36;1.30;;;1.20;;
9424;SDS011;17139;52.140;11.636;2023-03-13T09:20:03;0.60;;;0.60;;
9424;SDS011;17139;52.140;11.636;2023-03-13T09:22:31;1.08;;;0.85;;
9424;SDS011;17139;52.140;11.636;2023-03-13T09:24:58;0.75;;;0.75;;
9424;SDS011;17139;52.140;11.636;2023-03-13T09:27:25;0.60;;;0.60;;
9424;SDS011;17139;52.140;11.636;2023-03-13T09:29:52;0.70;;;0.70;;
9424;SDS011;17139;52.140;11.636;2023-03-13T09:32:23;0.60;;;0.60;;
9424;SDS011;17139;52.140;11.636;2023-03-13T09:34:51;3.00;;;0.80;;
9424;SDS011;17139;52.140;11.636;2023-03-13T09:37:19;0.73;;;0.73;;
9424;SDS011;17139;52.140;11.636;2023-03-13T09:39:47;0.80;;;0.80;;
9424;SDS011;17139;52.140;11.636;2023-03-13T09:42:14;0.80;;;0.80;;
9424;SDS011;17139;52.140;11.636;2023-03-13T09:44:44;0.60;;;0.60;;
9424;SDS011;17139;52.140;11.636;2023-03-13T09:47:15;0.70;;;0.70;;
9424;SDS011;17139;52.140;11.636;2023-03-13T09:49:48;0.90;;;0.90;;
9424;SDS011;17139;52.140;11.636;2023-03-13T09:52:21;0.98;;;0.90;;
9424;SDS011;17139;52.140;11.636;2023-03-13T09:54:50;0.68;;;0.68;;
9424;SDS011;17139;52.140;11.636;2023-03-13T09:57:26;0.60;;;0.57;;
9424;SDS011;17139;52.140;11.636;2023-03-13T09:59:58;0.85;;;0.80;;
9424;SDS011;17139;52.140;11.636;2023-03-13T10:02:30;0.82;;;0.82;;
9424;SDS011;17139;52.140;11.636;2023-03-13T10:05:06;0.60;;;0.60;;
9424;SDS011;17139;52.140;11.636;2023-03-13T10:07:37;0.90;;;0.90;;
9424;SDS011;17139;52.140;11.636;2023-03-13T10:10:06;1.02;;;1.02;;
9424;SDS011;17139;52.140;11.636;2023-03-13T10:12:41;0.80;;;0.80;;
9424;SDS011;17139;52.140;11.636;2023-03-13T10:15:28;0.93;;;0.93;;
9424;SDS011;17139;52.140;11.636;2023-03-13T10:17:59;0.90;;;0.90;;
9424;SDS011;17139;52.140;11.636;2023-03-13T10:20:44;0.60;;;0.60;;
9424;SDS011;17139;52.140;11.636;2023-03-13T10:23:14;0.52;;;0.52;;
9424;SDS011;17139;52.140;11.636;2023-03-13T10:25:44;0.68;;;0.68;;
9424;SDS011;17139;52.140;11.636;2023-03-13T10:28:12;1.35;;;0.70;;
9424;SDS011;17139;52.140;11.636;2023-03-13T10:30:42;0.65;;;0.65;;
9424;SDS011;17139;52.140;11.636;2023-03-13T10:33:21;0.60;;;0.60;;
9424;SDS011;17139;52.140;11.636;2023-03-13T10:36:05;1.30;;;0.88;;
9424;SDS011;17139;52.140;11.636;2023-03-13T10:38:44;0.60;;;0.60;;
9424;SDS011;17139;52.140;11.636;2023-03-13T10:41:18;0.90;;;0.90;;
9424;SDS011;17139;52.140;11.636;2023-03-13T10:43:54;0.60;;;0.60;;
9424;SDS011;17139;52.140;11.636;2023-03-13T10:46:26;0.95;;;0.60;;
9424;SDS011;17139;52.140;11.636;2023-03-13T10:48:54;0.70;;;0.70;;
9424;SDS011;17139;52.140;11.636;2023-03-13T10:51:24;0.85;;;0.80;;
9424;SDS011;17139;52.140;11.636;2023-03-13T10:53:59;1.10;;;0.73;;
9424;SDS011;17139;52.140;11.636;2023-03-13T10:56:27;0.60;;;0.60;;
9424;SDS011;17139;52.140;11.636;2023-03-13T10:58:55;0.77;;;0.77;;
9424;SDS011;17139;52.140;11.636;2023-03-13T11:01:24;0.65;;;0.65;;
9424;SDS011;17139;52.140;11.636;2023-03-13T11:03:56;0.60;;;0.60;;
9424;SDS011;17139;52.140;11.636;2023-03-13T11:06:27;0.80;;;0.68;;
9424;SDS011;17139;52.140;11.636;2023-03-13T11:09:09;0.82;;;0.82;;
9424;SDS011;17139;52.140;11.636;2023-03-13T11:11:45;1.25;;;0.82;;
9424;SDS011;17139;52.140;11.636;2023-03-13T11:14:14;0.55;;;0.55;;
9424;SDS011;17139;52.140;11.636;2023-03-13T11:16:47;0.60;;;0.60;;
9424;SDS011;17139;52.140;11.636;2023-03-13T11:19:29;0.70;;;0.70;;
9424;SDS011;17139;52.140;11.636;2023-03-13T11:22:20;0.70;;;0.70;;
9424;SDS011;17139;52.140;11.636;2023-03-13T11:24:56;0.90;;;0.90;;
9424;SDS011;17139;52.140;11.636;2023-03-13T11:27:35;0.70;;;0.70;;
9424;SDS011;17139;52.140;11.636;2023-03-13T11:30:15;0.70;;;0.70;;
9424;SDS011;17139;52.140;11.636;2023-03-13T11:32:51;1.08;;;0.77;;
9424;SDS011;17139;52.140;11.636;2023-03-13T11:35:25;4.05;;;0.90;;
9424;SDS011;17139;52.140;11.636;2023-03-13T11:38:04;0.60;;;0.60;;
9424;SDS011;17139;52.140;11.636;2023-03-13T11:40:35;2.10;;;1.08;;
9424;SDS011;17139;52.140;11.636;2023-03-13T11:43:12;0.82;;;0.77;;
9424;SDS011;17139;52.140;11.636;2023-03-13T11:45:51;0.85;;;0.85;;
9424;SDS011;17139;52.140;11.636;2023-03-13T11:48:34;0.70;;;0.70;;
9424;SDS011;17139;52.140;11.636;2023-03-13T11:51:10;0.73;;;0.73;;
9424;SDS011;17139;52.140;11.636;2023-03-13T11:53:53;1.00;;;0.90;;
9424;SDS011;17139;52.140;11.636;2023-03-13T11:56:30;0.85;;;0.85;;
9424;SDS011;17139;52.140;11.636;2023-03-13T11:59:05;0.52;;;0.52;;
9424;SDS011;17139;52.140;11.636;2023-03-13T12:01:48;0.90;;;0.90;;
9424;SDS011;17139;52.140;11.636;2023-03-13T12:04:19;1.00;;;1.00;;
9424;SDS011;17139;52.140;11.636;2023-03-13T12:06:51;0.63;;;0.63;;
9424;SDS011;17139;52.140;11.636;2023-03-13T12:09:26;0.70;;;0.70;;
9424;SDS011;17139;52.140;11.636;2023-03-13T12:11:57;0.50;;;0.50;;
9424;SDS011;17139;52.140;11.636;2023-03-13T12:14:29;0.90;;;0.90;;
9424;SDS011;17139;52.140;11.636;2023-03-13T12:16:59;0.60;;;0.60;;
9424;SDS011;17139;52.140;11.636;2023-03-13T12:19:29;0.80;;;0.80;;
9424;SDS011;17139;52.140;11.636;2023-03-13T12:22:05;0.82;;;0.82;;
9424;SDS011;17139;52.140;11.636;2023-03-13T12:24:41;0.85;;;0.80;;
9424;SDS011;17139;52.140;11.636;2023-03-13T12:27:16;0.80;;;0.80;;
9424;SDS011;17139;52.140;11.636;2023-03-13T12:29:47;2.05;;;0.80;;
9424;SDS011;17139;52.140;11.636;2023-03-13T12:32:22;0.85;;;0.85;;
9424;SDS011;17139;52.140;11.636;2023-03-13T12:34:58;1.73;;;1.15;;
9424;SDS011;17139;52.140;11.636;2023-03-13T12:37:33;0.80;;;0.75;;
9424;SDS011;17139;52.140;11.636;2023-03-13T12:40:11;0.90;;;0.60;;
9424;SDS011;17139;52.140;11.636;2023-03-13T12:42:48;0.70;;;0.70;;
9424;SDS011;17139;52.140;11.636;2023-03-13T12:45:21;0.70;;;0.70;;
9424;SDS011;17139;52.140;11.636;2023-03-13T12:50:56;0.73;;;0.73;;
9424;SDS011;17139;52.140;11.636;2023-03-13T12:53:39;0.88;;;0.88;;
9424;SDS011;17139;52.140;11.636;2023-03-13T12:59:26;0.77;;;0.77;;
9424;SDS011;17139;52.140;11.636;2023-03-13T13:01:57;1.00;;;1.00;;
9424;SDS011;17139;52.140;11.636;2023-03-13T13:04:26;0.98;;;0.98;;
9424;SDS011;17139;52.140;11.636;2023-03-13T13:06:56;0.68;;;0.68;;
9424;SDS011;17139;52.140;11.636;2023-03-13T13:09:27;0.70;;;0.70;;
9424;SDS011;17139;52.140;11.636;2023-03-13T13:11:58;1.50;;;0.65;;
9424;SDS011;17139;52.140;11.636;2023-03-13T13:17:34;1.00;;;1.00;;
9424;SDS011;17139;52.140;11.636;2023-03-13T13:23:23;0.68;;;0.68;;
9424;SDS011;17139;52.140;11.636;2023-03-13T13:32:29;0.90;;;0.90;;
9424;SDS011;17139;52.140;11.636;2023-03-13T13:35:18;0.60;;;0.60;;
9424;SDS011;17139;52.140;11.636;2023-03-13T13:37:50;0.90;;;0.90;;
9424;SDS011;17139;52.140;11.636;2023-03-13T13:40:19;0.57;;;0.57;;
9424;SDS011;17139;52.140;11.636;2023-03-13T13:42:49;1.02;;;1.02;;
9424;SDS011;17139;52.140;11.636;2023-03-13T13:51:20;1.63;;;0.88;;
9424;SDS011;17139;52.140;11.636;2023-03-13T13:53:50;0.93;;;0.93;;
9424;SDS011;17139;52.140;11.636;2023-03-13T13:56:30;0.90;;;0.90;;
9424;SDS011;17139;52.140;11.636;2023-03-13T13:59:04;0.73;;;0.73;;
9424;SDS011;17139;52.140;11.636;2023-03-13T14:01:46;0.60;;;0.60;;
9424;SDS011;17139;52.140;11.636;2023-03-13T14:04:18;2.05;;;1.00;;
9424;SDS011;17139;52.140;11.636;2023-03-13T14:06:52;1.00;;;1.00;;
9424;SDS011;17139;52.140;11.636;2023-03-13T14:09:23;1.48;;;0.90;;
9424;SDS011;17139;52.140;11.636;2023-03-13T14:11:58;1.38;;;0.85;;
9424;SDS011;17139;52.140;11.636;2023-03-13T14:14:25;1.10;;;1.10;;
9424;SDS011;17139;52.140;11.636;2023-03-13T14:16:53;0.70;;;0.70;;
9424;SDS011;17139;52.140;11.636;2023-03-13T14:19:27;0.43;;;0.43;;
9424;SDS011;17139;52.140;11.636;2023-03-13T14:21:59;0.90;;;0.90;;
9424;SDS011;17139;52.140;11.636;2023-03-13T14:24:27;0.57;;;0.57;;
9424;SDS011;17139;52.140;11.636;2023-03-13T14:26:54;1.27;;;0.60;;
9424;SDS011;17139;52.140;11.636;2023-03-13T14:29:21;0.70;;;0.70;;
9424;SDS011;17139;52.140;11.636;2023-03-13T14:31:51;0.80;;;0.80;;
9424;SDS011;17139;52.140;11.636;2023-03-13T14:34:19;0.57;;;0.57;;
9424;SDS011;17139;52.140;11.636;2023-03-13T14:36:48;0.40;;;0.40;;
9424;SDS011;17139;52.140;11.636;2023-03-13T14:39:17;0.43;;;0.43;;
9424;SDS011;17139;52.140;11.636;2023-03-13T14:41:46;0.60;;;0.60;;
9424;SDS011;17139;52.140;11.636;2023-03-13T14:44:19;0.47;;;0.47;;
9424;SDS011;17139;52.140;11.636;2023-03-13T14:46:52;0.60;;;0.60;;
9424;SDS011;17139;52.140;11.636;2023-03-13T14:49:22;0.50;;;0.50;;
9424;SDS011;17139;52.140;11.636;2023-03-13T14:51:58;1.27;;;0.90;;
9424;SDS011;17139;52.140;11.636;2023-03-13T14:54:28;0.70;;;0.70;;
9424;SDS011;17139;52.140;11.636;2023-03-13T14:57:01;1.63;;;0.60;;
9424;SDS011;17139;52.140;11.636;2023-03-13T14:59:30;1.65;;;0.60;;
9424;SDS011;17139;52.140;11.636;2023-03-13T15:01:58;0.70;;;0.70;;
9424;SDS011;17139;52.140;11.636;2023-03-13T15:07:17;0.80;;;0.80;;
9424;SDS011;17139;52.140;11.636;2023-03-13T15:09:48;3.97;;;0.70;;
9424;SDS011;17139;52.140;11.636;2023-03-13T15:12:16;0.45;;;0.45;;
9424;SDS011;17139;52.140;11.636;2023-03-13T15:14:45;0.68;;;0.68;;
9424;SDS011;17139;52.140;11.636;2023-03-13T15:17:15;1.08;;;0.95;;
9424;SDS011;17139;52.140;11.636;2023-03-13T15:19:48;0.68;;;0.68;;
9424;SDS011;17139;52.140;11.636;2023-03-13T15:22:23;1.05;;;1.00;;
9424;SDS011;17139;52.140;11.636;2023-03-13T15:24:52;8.38;;;0.70;;
9424;SDS011;17139;52.140;11.636;2023-03-13T15:27:20;0.60;;;0.60;;
9424;SDS011;17139;52.140;11.636;2023-03-13T15:29:49;5.05;;;0.50;;